Time;durP1;ratioP1;P1;durP2;ratioP2;P2;SDS_P1;SDS_P2;PMS_P1;PMS_P2;Temp;Humidity;BMP_temperature;BMP_pressure;BME280_temperature;BME280_humidity;BME280_pressure;Samples;Min_cycle;Max_cycle;Signal;HPM_P1;HPM_P2
2021/12/30 00:01:28;;;;;;;37.53;12.20;;;;;;;10.65;86.28;100995.78;5113731;28;20058;-66
2021/12/30 00:03:56;;;;;;;35.83;12.55;;;;;;;10.63;86.35;100994.97;5111291;28;20363;-69
2021/12/30 00:06:24;;;;;;;38.20;13.05;;;;;;;10.59;86.28;100999.44;5114487;27;20105;-68
2021/12/30 00:08:53;;;;;;;32.50;13.43;;;;;;;10.57;86.42;101004.78;5113418;28;20043;-71
2021/12/30 00:11:20;;;;;;;44.97;14.05;;;;;;;10.52;86.46;101000.53;5113322;27;20383;-72
2021/12/30 00:13:47;;;;;;;41.42;14.32;;;;;;;10.51;86.50;101010.22;5115371;27;20052;-72
2021/12/30 00:16:17;;;;;;;37.08;14.57;;;;;;;10.57;86.59;101011.84;5115522;27;20051;-72
2021/12/30 00:18:44;;;;;;;39.78;14.32;;;;;;;10.61;86.58;101020.53;5112297;27;20051;-73
2021/12/30 00:21:11;;;;;;;41.95;14.57;;;;;;;10.63;86.48;101016.06;5114147;28;20072;-70
2021/12/30 00:23:39;;;;;;;39.08;14.40;;;;;;;10.67;86.72;101012.41;5115773;28;20047;-72
2021/12/30 00:26:06;;;;;;;36.22;13.95;;;;;;;10.72;86.56;101021.09;5115045;27;20047;-69
2021/12/30 00:28:33;;;;;;;39.10;12.60;;;;;;;10.76;86.53;101006.03;5114706;27;20056;-71
2021/12/30 00:31:00;;;;;;;38.53;13.02;;;;;;;10.79;86.45;101005.94;5112457;28;20052;-72
2021/12/30 00:33:27;;;;;;;35.72;12.30;;;;;;;10.81;86.34;101014.66;5114677;27;20052;-72
2021/12/30 00:35:55;;;;;;;35.95;11.75;;;;;;;10.87;86.15;101009.25;5114001;28;20682;-71
2021/12/30 00:38:22;;;;;;;33.25;11.32;;;;;;;10.87;86.09;101012.72;5115605;27;20048;-72
2021/12/30 00:40:50;;;;;;;35.15;10.20;;;;;;;10.91;86.18;101034.59;5115376;27;20044;-72
2021/12/30 00:43:18;;;;;;;29.83;8.93;;;;;;;10.94;86.27;101026.59;5115195;28;20075;-71
2021/12/30 00:45:45;;;;;;;35.60;9.15;;;;;;;10.97;86.02;101034.44;5115462;28;20499;-69
2021/12/30 00:48:13;;;;;;;25.88;7.55;;;;;;;10.98;85.94;101030.91;5115280;28;20044;-72
2021/12/30 00:50:42;;;;;;;28.77;8.00;;;;;;;10.98;85.97;101025.63;5114243;28;20044;-68
2021/12/30 00:53:10;;;;;;;34.72;7.43;;;;;;;11.00;85.77;101021.13;5113418;27;20057;-70
2021/12/30 00:55:39;;;;;;;36.20;8.65;;;;;;;10.99;85.65;101022.03;5114891;28;20040;-71
2021/12/30 00:58:07;;;;;;;37.47;8.73;;;;;;;10.95;85.90;101025.69;5114905;27;20056;-72
2021/12/30 01:00:38;;;;;;;34.53;8.52;;;;;;;10.92;85.83;101028.41;5115707;27;20042;-70
2021/12/30 01:03:05;;;;;;;36.58;8.10;;;;;;;10.90;85.92;101016.19;5115567;27;20048;-77
2021/12/30 01:05:33;;;;;;;34.95;8.95;;;;;;;10.88;85.97;101017.09;5114486;28;20040;-75
2021/12/30 01:08:02;;;;;;;37.45;8.95;;;;;;;10.88;86.11;101027.66;5106931;27;20060;-74
2021/12/30 01:10:30;;;;;;;40.90;9.40;;;;;;;10.87;86.02;101031.19;5115433;27;20068;-70
2021/12/30 01:13:05;;;;;;;38.90;9.95;;;;;;;10.88;86.34;101027.66;5114761;27;20051;-74
2021/12/30 01:20:55;;;;;;;37.35;8.95;;;;;;;11.06;86.17;101040.34;5115713;27;20131;-65
2021/12/30 01:23:24;;;;;;;38.38;10.30;;;;;;;11.07;85.96;101040.28;5117151;28;20070;-75
2021/12/30 01:25:51;;;;;;;39.70;9.93;;;;;;;11.08;85.93;101049.94;5112149;28;20052;-76
2021/12/30 01:28:18;;;;;;;33.35;9.93;;;;;;;11.12;85.87;101045.44;5118300;28;20044;-77
2021/12/30 01:30:45;;;;;;;29.15;8.68;;;;;;;11.12;85.99;101046.31;5118891;28;20132;-76
2021/12/30 01:33:12;;;;;;;35.72;9.30;;;;;;;11.12;85.84;101056.00;5118898;27;20044;-76
2021/12/30 01:35:39;;;;;;;32.25;8.35;;;;;;;11.13;86.03;101055.97;5103518;28;20056;-75
2021/12/30 01:38:11;;;;;;;40.58;9.35;;;;;;;11.14;85.87;101055.03;5114558;28;20040;-69
2021/12/30 01:40:41;;;;;;;39.13;8.95;;;;;;;11.16;85.99;101050.56;5103663;28;20476;-73
2021/12/30 01:43:10;;;;;;;34.40;8.55;;;;;;;11.17;85.99;101047.03;5118822;27;20052;-70
2021/12/30 01:45:40;;;;;;;35.20;8.60;;;;;;;11.20;85.84;101043.44;5118989;27;20043;-77
2021/12/30 01:48:08;;;;;;;34.83;8.68;;;;;;;11.24;85.96;101052.16;5113835;27;20583;-75
2021/12/30 01:50:36;;;;;;;28.25;8.00;;;;;;;11.26;85.96;101056.47;5116183;28;20410;-74
2021/12/30 01:53:03;;;;;;;28.73;7.55;;;;;;;11.29;85.74;101059.00;5114454;28;20513;-73
2021/12/30 01:55:34;;;;;;;33.05;8.23;;;;;;;11.32;85.93;101056.25;5113363;27;20044;-73
2021/12/30 01:58:03;;;;;;;35.42;8.05;;;;;;;11.36;85.94;101061.47;5107811;28;20144;-73
2021/12/30 02:00:35;;;;;;;36.60;7.72;;;;;;;11.38;85.89;101057.00;5114622;27;20048;-71
2021/12/30 02:03:02;;;;;;;39.85;7.80;;;;;;;11.39;85.90;101051.69;5114161;27;20517;-76
2021/12/30 02:05:29;;;;;;;35.90;6.75;;;;;;;11.41;86.02;101054.25;5118170;27;20520;-73
2021/12/30 02:07:56;;;;;;;26.75;6.82;;;;;;;11.41;85.87;101048.97;5116201;28;20123;-73
2021/12/30 02:10:24;;;;;;;37.92;6.63;;;;;;;11.41;85.83;101051.63;5113105;27;20040;-70
2021/12/30 02:12:52;;;;;;;34.45;7.05;;;;;;;11.42;86.25;101056.00;5117627;27;20054;-73
2021/12/30 02:15:20;;;;;;;32.85;6.70;;;;;;;11.45;86.09;101063.81;5116432;27;20525;-75
2021/12/30 02:17:49;;;;;;;27.80;6.97;;;;;;;11.44;86.10;101062.97;5111674;28;20076;-74
2021/12/30 02:21:02;;;;;;;32.95;6.70;;;;;;;11.45;86.11;101066.47;5116064;28;20044;-75
2021/12/30 02:23:36;;;;;;;29.38;7.55;;;;;;;11.48;86.34;101066.38;5115470;27;20051;-74
2021/12/30 02:26:15;;;;;;;27.95;6.85;;;;;;;11.50;86.33;101061.88;5118015;28;20131;-71
2021/12/30 02:28:43;;;;;;;30.98;7.72;;;;;;;11.53;86.43;101071.50;5117180;28;20131;-72
2021/12/30 02:31:14;;;;;;;31.02;7.22;;;;;;;11.56;86.45;101081.97;5117167;27;20409;-72
2021/12/30 02:33:44;;;;;;;29.92;7.32;;;;;;;11.59;86.37;101082.75;5117517;28;20051;-74
2021/12/30 02:36:15;;;;;;;28.00;7.65;;;;;;;11.59;86.31;101080.13;5117782;27;20050;-74
2021/12/30 02:38:46;;;;;;;31.20;8.02;;;;;;;11.62;86.37;101085.28;5117365;27;20422;-72
2021/12/30 02:41:17;;;;;;;26.17;6.70;;;;;;;11.65;86.53;101081.69;5105740;27;20413;-71
2021/12/30 02:43:48;;;;;;;31.10;7.40;;;;;;;11.69;86.39;101082.47;5116765;28;20135;-72
2021/12/30 02:46:20;;;;;;;33.60;7.55;;;;;;;11.70;86.44;101074.50;5118347;28;20050;-73
2021/12/30 02:48:52;;;;;;;26.85;7.00;;;;;;;11.71;86.41;101075.34;5117111;28;20076;-72
2021/12/30 02:51:20;;;;;;;32.05;7.05;;;;;;;11.72;86.40;101077.06;5113401;28;20066;-71
2021/12/30 02:53:49;;;;;;;32.67;7.45;;;;;;;11.74;86.47;101080.53;5111796;27;20036;-74
2021/12/30 02:56:17;;;;;;;24.48;6.55;;;;;;;11.74;86.63;101075.25;5114830;27;20048;-76
2021/12/30 02:58:44;;;;;;;32.55;7.40;;;;;;;11.74;86.59;101080.53;5115176;28;20040;-72
2021/12/30 03:01:33;;;;;;;27.48;7.38;;;;;;;11.75;86.62;101080.47;5116905;27;20052;-69
2021/12/30 03:04:05;;;;;;;29.90;7.68;;;;;;;11.76;86.77;101079.56;5115046;28;20044;-69
2021/12/30 03:06:32;;;;;;;29.33;6.78;;;;;;;11.77;86.58;101083.94;5111371;27;20079;-75
2021/12/30 03:09:00;;;;;;;24.45;7.10;;;;;;;11.77;86.65;101085.72;5106418;28;20036;-72
2021/12/30 03:11:28;;;;;;;29.70;7.47;;;;;;;11.77;86.86;101083.09;5104112;28;20044;-75
2021/12/30 03:13:56;;;;;;;26.58;7.43;;;;;;;11.79;86.90;101086.56;5110616;27;20050;-68
2021/12/30 03:16:32;;;;;;;23.02;7.10;;;;;;;11.80;86.88;101083.84;5117272;27;20039;-80
2021/12/30 03:18:59;;;;;;;26.50;7.93;;;;;;;11.83;86.88;101089.97;5117783;27;20528;-70
2021/12/30 03:21:27;;;;;;;23.40;7.50;;;;;;;11.84;86.77;101079.34;5116441;27;20044;-75
2021/12/30 03:23:59;;;;;;;30.55;8.25;;;;;;;11.85;86.99;101086.34;5116833;28;20467;-70
2021/12/30 03:26:27;;;;;;;28.42;7.55;;;;;;;11.88;86.88;101086.25;5117373;27;20039;-75
2021/12/30 03:28:54;;;;;;;20.27;6.25;;;;;;;11.89;86.83;101087.09;5108763;28;20051;-75
2021/12/30 03:31:22;;;;;;;22.52;7.53;;;;;;;11.89;86.94;101082.72;5113208;27;20072;-75
2021/12/30 03:33:50;;;;;;;30.13;7.43;;;;;;;11.92;87.02;101087.03;5116310;27;20072;-73
2021/12/30 03:36:19;;;;;;;21.35;6.50;;;;;;;11.92;86.98;101094.94;5112470;27;20181;-73
2021/12/30 03:38:49;;;;;;;22.38;6.55;;;;;;;11.94;86.96;101103.69;5116499;27;20090;-69
2021/12/30 03:41:23;;;;;;;21.23;6.53;;;;;;;11.95;87.07;101102.78;5095156;28;20055;-73
2021/12/30 03:43:51;;;;;;;19.88;6.25;;;;;;;11.94;86.86;101099.25;5107546;28;20139;-72
2021/12/30 03:46:18;;;;;;;22.08;6.25;;;;;;;11.96;87.04;101101.84;5116274;28;20048;-71
2021/12/30 03:48:45;;;;;;;20.30;6.20;;;;;;;11.95;87.09;101098.34;5115916;28;20048;-70
2021/12/30 03:51:24;;;;;;;19.98;6.03;;;;;;;11.97;87.16;101098.28;5115279;27;20048;-70
2021/12/30 03:53:57;;;;;;;18.75;6.10;;;;;;;11.99;87.22;101116.78;5114695;28;20044;-71
2021/12/30 03:56:28;;;;;;;18.85;5.70;;;;;;;11.99;87.39;101133.50;5115566;27;20140;-71
2021/12/30 03:58:56;;;;;;;21.67;5.78;;;;;;;11.99;87.40;101122.94;5116044;27;20573;-72
2021/12/30 04:01:26;;;;;;;18.45;5.95;;;;;;;12.00;87.51;101126.44;5116609;28;20051;-75
2021/12/30 04:03:55;;;;;;;15.05;5.20;;;;;;;12.01;87.41;101112.31;5116844;27;20740;-80
2021/12/30 04:06:22;;;;;;;10.93;4.35;;;;;;;12.00;87.53;101108.81;5116931;27;20044;-74
2021/12/30 04:08:49;;;;;;;14.82;4.60;;;;;;;12.01;87.52;101113.19;5116855;28;20063;-75
2021/12/30 04:11:17;;;;;;;9.63;4.10;;;;;;;12.03;87.74;101105.19;5112065;28;20040;-74
2021/12/30 04:13:43;;;;;;;11.65;3.78;;;;;;;12.03;87.49;101106.06;5107821;28;20489;-74
2021/12/30 04:16:10;;;;;;;9.27;3.38;;;;;;;12.05;87.54;101101.63;5112806;28;20742;-75
2021/12/30 04:18:37;;;;;;;10.05;3.45;;;;;;;12.06;87.70;101099.81;5104038;27;20040;-70
2021/12/30 04:21:04;;;;;;;6.45;2.90;;;;;;;12.08;87.49;101105.94;5106790;28;20044;-79
2021/12/30 04:23:31;;;;;;;9.77;3.47;;;;;;;12.08;87.54;101112.06;5116552;28;20052;-78
2021/12/30 04:25:58;;;;;;;7.35;3.17;;;;;;;12.10;87.53;101102.31;5116423;27;20094;-76
2021/12/30 04:28:25;;;;;;;6.22;3.13;;;;;;;12.11;87.49;101111.97;5116527;27;20048;-77
2021/12/30 04:30:52;;;;;;;7.05;2.92;;;;;;;12.13;87.39;101113.69;5115406;28;20135;-75
2021/12/30 04:33:19;;;;;;;8.77;3.72;;;;;;;12.14;87.53;101118.06;5115645;28;20140;-76
2021/12/30 04:35:46;;;;;;;9.38;3.53;;;;;;;12.13;87.58;101119.84;5116273;27;20063;-77
2021/12/30 04:38:13;;;;;;;7.28;3.35;;;;;;;12.14;87.57;101118.94;5116541;27;20040;-79
2021/12/30 04:40:40;;;;;;;6.88;3.55;;;;;;;12.16;87.61;101127.69;5106986;28;20044;-71
2021/12/30 04:43:06;;;;;;;8.52;3.88;;;;;;;12.17;87.50;101125.88;5115996;28;20052;-75
2021/12/30 04:45:33;;;;;;;8.30;4.22;;;;;;;12.18;87.60;101117.03;5116861;27;20052;-76
2021/12/30 04:48:00;;;;;;;11.10;4.00;;;;;;;12.19;87.75;101124.06;5116524;28;20043;-69
2021/12/30 04:50:26;;;;;;;6.05;3.80;;;;;;;12.17;87.58;101118.84;5114912;27;20055;-67
2021/12/30 04:52:53;;;;;;;7.00;4.20;;;;;;;12.20;87.59;101128.44;5115222;27;20055;-75
2021/12/30 04:55:20;;;;;;;7.90;4.72;;;;;;;12.21;87.65;101128.38;5118834;27;20814;-76
2021/12/30 04:57:47;;;;;;;7.85;4.15;;;;;;;12.22;87.67;101134.53;5118432;27;20040;-75
2021/12/30 05:00:15;;;;;;;9.07;5.20;;;;;;;12.23;87.57;101131.00;5119377;27;20512;-70
2021/12/30 05:03:06;;;;;;;8.55;4.93;;;;;;;12.24;87.58;101124.78;5108614;28;20053;-76
2021/12/30 05:05:29;;;;;;;8.00;4.78;;;;;;;12.24;87.53;101123.00;5110148;28;20056;-68
2021/12/30 05:07:57;;;;;;;7.50;4.85;;;;;;;12.24;87.42;101128.28;5113554;28;20513;-75
2021/12/30 05:10:23;;;;;;;8.73;4.80;;;;;;;12.24;87.56;101136.22;5100756;28;20048;-71
2021/12/30 05:12:50;;;;;;;7.15;4.53;;;;;;;12.24;87.37;101128.28;5118911;27;20051;-74
2021/12/30 05:15:17;;;;;;;6.20;4.20;;;;;;;12.24;87.33;101125.66;5119685;27;20063;-74
2021/12/30 05:17:44;;;;;;;6.85;4.40;;;;;;;12.24;87.43;101127.44;5119184;28;20127;-72
2021/12/30 05:20:12;;;;;;;5.72;4.38;;;;;;;12.26;87.74;101123.81;5119270;28;20047;-72
2021/12/30 05:22:40;;;;;;;5.63;4.05;;;;;;;12.28;87.47;101123.75;5115021;27;20474;-73
2021/12/30 05:25:09;;;;;;;6.53;4.10;;;;;;;12.27;87.43;101124.66;5119530;27;20039;-74
2021/12/30 05:27:36;;;;;;;6.57;4.18;;;;;;;12.28;87.59;101121.13;5119666;28;20054;-72
2021/12/30 05:30:06;;;;;;;7.75;5.65;;;;;;;12.31;87.80;101126.31;5117263;28;20051;-68
2021/12/30 05:32:34;;;;;;;8.63;6.10;;;;;;;12.32;87.68;101125.41;5117005;27;20502;-74
2021/12/30 05:35:04;;;;;;;11.80;8.10;;;;;;;12.35;87.92;101127.06;5134166;27;20056;-75
2021/12/30 05:37:31;;;;;;;11.63;9.20;;;;;;;12.38;88.02;101119.03;5112343;28;20056;-76
2021/12/30 05:39:58;;;;;;;13.68;9.70;;;;;;;12.41;88.04;101119.81;5116552;28;20040;-71
2021/12/30 05:42:26;;;;;;;14.68;11.43;;;;;;;12.44;88.24;101121.47;5116283;28;20074;-71
2021/12/30 05:44:54;;;;;;;14.48;11.77;;;;;;;12.48;88.24;101128.41;5111184;27;20050;-68
2021/12/30 05:47:22;;;;;;;17.20;12.45;;;;;;;12.50;88.28;101138.91;5110854;28;20055;-74
2021/12/30 05:49:49;;;;;;;18.05;12.45;;;;;;;12.53;88.16;101134.38;5118657;27;20556;-66
2021/12/30 05:52:16;;;;;;;15.00;12.40;;;;;;;12.57;87.99;101141.31;5113862;28;20052;-67
2021/12/30 05:54:43;;;;;;;17.73;13.82;;;;;;;12.62;88.04;101151.72;5103969;28;20048;-68
2021/12/30 05:57:10;;;;;;;17.70;14.75;;;;;;;12.65;88.06;101146.34;5113229;28;20040;-68
2021/12/30 05:59:38;;;;;;;17.83;14.13;;;;;;;12.67;87.81;101152.41;5115146;27;20048;-72
2021/12/30 06:02:05;;;;;;;19.10;13.70;;;;;;;12.71;87.84;101153.22;5115201;27;20051;-75
2021/12/30 06:04:33;;;;;;;18.85;14.65;;;;;;;12.73;87.76;101152.22;5117125;27;20040;-72
2021/12/30 06:06:59;;;;;;;21.50;16.27;;;;;;;12.77;87.70;101157.44;5108795;27;20051;-74
2021/12/30 06:09:27;;;;;;;17.55;15.05;;;;;;;12.79;87.97;101155.56;5117663;28;20040;-72
2021/12/30 06:11:55;;;;;;;20.17;16.67;;;;;;;12.81;87.73;101140.50;5115285;27;20093;-74
2021/12/30 06:14:21;;;;;;;19.23;16.33;;;;;;;12.83;87.73;101138.69;5107573;27;20053;-71
2021/12/30 06:16:48;;;;;;;19.95;17.10;;;;;;;12.85;87.58;101144.78;5117552;28;20040;-69
2021/12/30 06:19:15;;;;;;;19.52;17.40;;;;;;;12.87;87.53;101140.31;5109105;27;20417;-74
2021/12/30 06:21:42;;;;;;;21.95;17.30;;;;;;;12.89;87.54;101141.97;5114733;27;20127;-72
2021/12/30 06:24:09;;;;;;;20.48;17.98;;;;;;;12.92;87.52;101134.84;5117514;27;20071;-72
2021/12/30 06:26:36;;;;;;;19.35;16.88;;;;;;;12.93;87.52;101141.84;5117692;27;20123;-73
2021/12/30 06:29:03;;;;;;;18.45;16.02;;;;;;;12.95;87.34;101143.53;5117255;27;20074;-71
2021/12/30 06:31:31;;;;;;;17.48;15.63;;;;;;;12.98;87.25;101142.56;5108686;27;20049;-74
2021/12/30 06:33:58;;;;;;;17.92;15.90;;;;;;;12.99;87.24;101153.09;5113121;28;20052;-74
2021/12/30 06:36:25;;;;;;;18.60;15.80;;;;;;;13.01;87.12;101153.06;5116686;27;20551;-72
2021/12/30 06:38:52;;;;;;;17.52;15.73;;;;;;;13.01;87.23;101140.66;5096718;28;20048;-73
2021/12/30 06:41:18;;;;;;;15.10;13.55;;;;;;;13.02;87.13;101150.34;5115692;28;20044;-72
2021/12/30 06:43:45;;;;;;;15.27;13.77;;;;;;;13.03;87.12;101153.84;5117467;28;20059;-75
2021/12/30 06:46:12;;;;;;;11.70;10.60;;;;;;;13.04;86.78;101150.28;5117673;28;20050;-72
2021/12/30 06:48:44;;;;;;;11.98;10.77;;;;;;;13.04;86.65;101156.44;5116795;28;20365;-73
2021/12/30 06:51:13;;;;;;;11.32;9.90;;;;;;;13.07;86.66;101162.56;5109029;27;20082;-73
2021/12/30 06:53:40;;;;;;;11.27;10.07;;;;;;;13.07;86.62;101171.34;5117243;27;20048;-73
2021/12/30 06:56:07;;;;;;;10.05;9.05;;;;;;;13.09;86.40;101180.09;5117352;27;20583;-73
2021/12/30 06:58:35;;;;;;;10.65;9.45;;;;;;;13.08;86.51;101170.44;5117147;28;20048;-71
2021/12/30 07:01:03;;;;;;;13.80;9.00;;;;;;;13.10;86.34;101183.59;5117247;27;20094;-72
2021/12/30 07:03:30;;;;;;;7.32;6.63;;;;;;;13.10;86.09;101187.13;5115087;28;20071;-72
2021/12/30 07:05:57;;;;;;;7.38;6.68;;;;;;;13.13;86.05;101183.50;5116166;28;20052;-72
2021/12/30 07:08:24;;;;;;;9.40;7.35;;;;;;;13.13;85.98;101188.78;5109888;28;20680;-74
2021/12/30 07:10:51;;;;;;;8.80;7.00;;;;;;;13.13;85.81;101186.16;5097482;28;20049;-72
2021/12/30 07:13:17;;;;;;;9.90;7.75;;;;;;;13.11;85.30;101196.81;5115075;28;20063;-73
2021/12/30 07:15:44;;;;;;;8.65;7.78;;;;;;;13.12;86.01;101208.25;5116178;28;20051;-73
2021/12/30 07:18:11;;;;;;;10.77;8.65;;;;;;;13.13;85.85;101205.53;5108404;28;20044;-72
2021/12/30 07:20:37;;;;;;;10.50;9.32;;;;;;;13.13;85.71;101208.16;5095773;28;20499;-72
2021/12/30 07:23:04;;;;;;;10.40;9.35;;;;;;;13.14;85.74;101209.06;5114584;28;20051;-73
2021/12/30 07:25:31;;;;;;;11.40;10.30;;;;;;;13.15;85.72;101218.72;5104603;28;20139;-69
2021/12/30 07:27:58;;;;;;;11.13;9.95;;;;;;;13.16;85.61;101229.25;5110921;27;20052;-73
2021/12/30 07:30:28;;;;;;;12.25;10.23;;;;;;;13.17;85.48;101227.50;5115692;27;20051;-70
2021/12/30 07:32:54;;;;;;;11.88;10.60;;;;;;;13.18;85.55;101226.53;5091741;28;20055;-69
2021/12/30 07:35:26;;;;;;;11.35;10.02;;;;;;;13.17;85.73;101225.69;5108719;28;20052;-73
2021/12/30 07:37:52;;;;;;;12.57;11.27;;;;;;;13.20;85.44;101228.25;5112112;28;20051;-72
2021/12/30 07:40:21;;;;;;;12.35;11.05;;;;;;;13.21;85.52;101239.69;5114312;28;20040;-71
2021/12/30 07:42:48;;;;;;;12.43;11.20;;;;;;;13.20;85.55;101230.00;5114042;27;20040;-70
2021/12/30 07:45:15;;;;;;;14.00;11.02;;;;;;;13.21;85.44;101242.31;5115291;27;20036;-70
2021/12/30 07:47:49;;;;;;;12.57;11.23;;;;;;;13.23;85.40;101247.59;5115921;27;20043;-71
2021/12/30 07:50:16;;;;;;;11.70;10.50;;;;;;;13.24;85.26;101246.63;5114940;28;20509;-72
2021/12/30 07:52:43;;;;;;;11.23;10.02;;;;;;;13.25;85.21;101251.03;5114321;27;20058;-69
2021/12/30 07:55:13;;;;;;;11.27;9.68;;;;;;;13.27;85.18;101241.25;5112339;28;20524;-64
2021/12/30 07:57:40;;;;;;;10.50;9.50;;;;;;;13.28;85.17;101242.97;5114597;28;20048;-70
2021/12/30 08:00:13;;;;;;;11.05;9.93;;;;;;;13.30;84.94;101238.50;5113546;28;20051;-69
2021/12/30 08:02:42;;;;;;;11.00;9.90;;;;;;;13.32;84.97;101249.91;5055964;27;20422;-69
2021/12/30 08:05:12;;;;;;;11.85;10.65;;;;;;;13.32;84.89;101249.91;5111601;28;20044;-73
2021/12/30 08:07:39;;;;;;;12.38;10.02;;;;;;;13.34;84.63;101254.22;5111399;27;20058;-69
2021/12/30 08:10:13;;;;;;;11.13;10.02;;;;;;;13.36;84.82;101259.47;5109416;28;20082;-70
2021/12/30 08:12:44;;;;;;;10.43;9.38;;;;;;;13.36;84.69;101263.00;5114467;28;20059;-67
2021/12/30 08:15:13;;;;;;;11.52;10.20;;;;;;;13.38;84.86;101270.88;5115045;28;20075;-74
2021/12/30 08:17:42;;;;;;;11.77;10.13;;;;;;;13.40;84.77;101271.72;5114956;28;20036;-70
2021/12/30 08:20:12;;;;;;;14.00;10.73;;;;;;;13.41;84.65;101273.44;5107870;28;20041;-69
2021/12/30 08:22:38;;;;;;;11.75;10.55;;;;;;;13.43;84.69;101271.59;5105166;27;20380;-68
2021/12/30 08:25:08;;;;;;;12.95;10.38;;;;;;;13.44;84.70;101265.38;5110310;28;20115;-65
2021/12/30 08:27:35;;;;;;;12.00;10.80;;;;;;;13.46;84.62;101270.63;5106261;27;20051;-65
2021/12/30 08:30:07;;;;;;;12.60;10.90;;;;;;;13.48;84.29;101268.81;5109645;28;20064;-67
2021/12/30 08:32:33;;;;;;;13.32;11.63;;;;;;;13.49;84.33;101263.44;5109896;28;20040;-72
2021/12/30 08:35:01;;;;;;;13.55;12.15;;;;;;;13.51;84.32;101268.66;5110266;27;20147;-67
2021/12/30 08:37:28;;;;;;;14.02;11.15;;;;;;;13.51;84.08;101272.19;5110581;27;20132;-68
2021/12/30 08:39:55;;;;;;;12.70;10.75;;;;;;;13.51;84.23;101285.44;5110698;27;20127;-71
2021/12/30 08:42:28;;;;;;;14.20;12.65;;;;;;;13.54;84.11;101276.53;5110839;27;20123;-68
2021/12/30 08:45:00;;;;;;;12.20;10.90;;;;;;;13.53;84.22;101280.09;5105645;28;20053;-71
2021/12/30 08:47:30;;;;;;;13.68;11.73;;;;;;;13.52;84.09;101281.00;5106853;28;20044;-70
2021/12/30 08:49:59;;;;;;;11.25;9.75;;;;;;;13.55;84.09;101280.03;5109747;27;20364;-65
2021/12/30 08:52:28;;;;;;;10.70;9.60;;;;;;;13.57;84.15;101279.06;5103819;27;20049;-75
2021/12/30 08:54:59;;;;;;;12.77;9.10;;;;;;;13.58;84.13;101286.06;5108406;28;20055;-69
2021/12/30 08:57:26;;;;;;;9.38;8.23;;;;;;;13.60;83.96;101283.38;5110799;28;20092;-67
2021/12/30 08:59:53;;;;;;;9.95;7.90;;;;;;;13.63;84.01;101278.84;5113581;27;20051;-71
2021/12/30 09:02:20;;;;;;;9.73;7.95;;;;;;;13.64;83.96;101288.50;5113095;27;21728;-66
2021/12/30 09:04:48;;;;;;;8.65;6.60;;;;;;;13.66;83.69;101296.41;5106678;27;20040;-66
2021/12/30 09:07:18;;;;;;;7.90;6.80;;;;;;;13.70;83.72;101305.09;5110381;28;20048;-67
2021/12/30 09:09:46;;;;;;;11.30;8.93;;;;;;;13.74;83.62;101312.88;5111022;28;20051;-67
2021/12/30 09:12:18;;;;;;;9.27;7.00;;;;;;;13.79;83.41;101318.00;5106028;27;20127;-66
2021/12/30 09:14:51;;;;;;;6.60;5.97;;;;;;;13.81;83.23;101322.34;5112540;27;20044;-68
2021/12/30 09:17:18;;;;;;;8.13;7.32;;;;;;;13.89;83.13;101318.56;5112480;27;20048;-74
2021/12/30 09:19:45;;;;;;;7.43;6.03;;;;;;;13.92;83.14;101326.41;5112155;28;20052;-67
2021/12/30 09:22:12;;;;;;;7.78;5.63;;;;;;;13.95;82.92;101316.53;5103542;28;20082;-68
2021/12/30 09:24:39;;;;;;;6.10;5.50;;;;;;;13.98;82.52;101329.69;5110164;28;20124;-67
2021/12/30 09:27:08;;;;;;;6.43;4.85;;;;;;;14.00;82.37;101334.03;5112176;28;20071;-67
2021/12/30 09:29:35;;;;;;;8.02;5.30;;;;;;;14.00;82.46;101336.69;5105635;27;20044;-66
2021/12/30 09:32:02;;;;;;;6.43;4.78;;;;;;;13.98;82.54;101332.34;5112224;27;20040;-68
2021/12/30 09:34:29;;;;;;;5.30;4.75;;;;;;;14.00;82.40;101332.28;5105688;27;20055;-69
2021/12/30 09:36:56;;;;;;;6.53;4.90;;;;;;;14.02;82.56;101330.44;5102290;28;20052;-69
2021/12/30 09:39:23;;;;;;;6.30;4.55;;;;;;;14.07;81.97;101324.97;5105221;27;20040;-67
2021/12/30 09:41:50;;;;;;;6.60;4.60;;;;;;;14.09;82.05;101323.97;5110552;27;20052;-72
2021/12/30 09:44:21;;;;;;;7.22;4.70;;;;;;;14.11;81.95;101335.41;5115163;27;20428;-65
2021/12/30 09:46:49;;;;;;;5.07;4.30;;;;;;;14.14;81.66;101326.47;5115838;28;20075;-68
2021/12/30 09:49:19;;;;;;;4.10;3.53;;;;;;;14.14;81.09;101323.81;5107086;27;20652;-66
2021/12/30 09:51:47;;;;;;;5.32;4.60;;;;;;;14.14;81.66;101343.22;5107393;28;20063;-67
2021/12/30 09:54:14;;;;;;;5.10;4.38;;;;;;;14.20;81.52;101347.44;5115216;28;20127;-71
2021/12/30 09:56:44;;;;;;;6.65;3.80;;;;;;;14.24;81.44;101354.34;5110364;28;20050;-68
2021/12/30 09:59:12;;;;;;;6.85;4.00;;;;;;;14.26;81.43;101359.59;5110404;28;20781;-67
2021/12/30 10:01:42;;;;;;;7.43;3.97;;;;;;;14.30;81.37;101361.22;5108500;27;20047;-69
2021/12/30 10:04:12;;;;;;;5.18;3.70;;;;;;;14.31;80.98;101372.69;5110305;28;20134;-72
2021/12/30 10:06:47;;;;;;;7.65;3.70;;;;;;;14.34;81.01;101368.16;5112466;27;20083;-66
2021/12/30 10:09:16;;;;;;;8.20;5.00;;;;;;;14.36;80.77;101368.94;5105974;28;20043;-74
2021/12/30 10:11:54;;;;;;;4.63;3.22;;;;;;;14.39;80.41;101379.44;5110013;28;20134;-64
2021/12/30 10:14:35;;;;;;;6.35;3.17;;;;;;;14.41;80.56;101379.38;5121755;27;20110;-68
2021/12/30 10:17:25;;;;;;;6.13;3.10;;;;;;;14.45;80.13;101370.38;5111238;28;20044;-67
2021/12/30 10:19:54;;;;;;;7.75;3.20;;;;;;;14.49;80.11;101364.03;5115858;28;20155;-74
2021/12/30 10:22:25;;;;;;;5.47;2.53;;;;;;;14.52;79.56;101368.38;5116469;27;20044;-73
2021/12/30 10:24:52;;;;;;;4.50;2.55;;;;;;;14.58;79.46;101362.81;5108629;28;20044;-66
2021/12/30 10:27:34;;;;;;;6.15;3.10;;;;;;;14.59;79.16;101361.88;5116418;27;20044;-68
2021/12/30 10:30:03;;;;;;;6.97;3.03;;;;;;;14.60;79.23;101363.63;5105513;28;20106;-72
2021/12/30 10:32:30;;;;;;;6.80;2.88;;;;;;;14.65;78.69;101366.94;5106617;28;20475;-70
2021/12/30 10:35:05;;;;;;;11.95;8.48;;;;;;;14.71;78.79;101365.88;5105601;27;20056;-76
2021/12/30 10:37:34;;;;;;;32.75;29.25;;;;;;;14.75;78.73;101363.03;5112019;28;20504;-73
2021/12/30 10:40:01;;;;;;;6.28;3.00;;;;;;;14.77;78.15;101365.66;5107698;28;20040;-76
2021/12/30 10:42:30;;;;;;;5.88;2.60;;;;;;;14.80;77.48;101372.63;5112280;27;20049;-68
2021/12/30 10:45:04;;;;;;;9.98;2.83;;;;;;;14.85;77.66;101375.97;5114312;28;20055;-74
2021/12/30 10:47:49;;;;;;;7.43;3.13;;;;;;;14.88;77.50;101373.16;5107678;27;20048;-73
2021/12/30 10:50:23;;;;;;;8.88;3.20;;;;;;;14.88;77.31;101381.13;5111156;28;20142;-73
2021/12/30 10:52:56;;;;;;;13.10;3.45;;;;;;;14.84;77.32;101377.75;5111652;28;20067;-70
2021/12/30 10:55:24;;;;;;;9.27;3.15;;;;;;;14.84;77.28;101368.94;5111853;27;20044;-72
2021/12/30 10:57:52;;;;;;;13.93;3.33;;;;;;;14.82;77.26;101366.31;5115101;28;20125;-74
2021/12/30 11:00:34;;;;;;;9.63;3.30;;;;;;;14.76;77.25;101361.25;5116432;27;20056;-71
2021/12/30 11:03:24;;;;;;;9.73;2.80;;;;;;;14.72;77.24;101375.56;5110100;28;20044;-72
2021/12/30 11:06:18;;;;;;;10.60;2.78;;;;;;;14.69;77.32;101368.59;5115797;27;20048;-68
2021/12/30 11:08:47;;;;;;;9.73;3.60;;;;;;;14.67;77.52;101358.97;5103353;28;20037;-72
2021/12/30 11:11:26;;;;;;;10.95;3.08;;;;;;;14.64;77.43;101361.72;5110328;28;20044;-72
2021/12/30 11:14:09;;;;;;;10.63;3.17;;;;;;;14.64;76.88;101373.19;5105046;27;20048;-67
2021/12/30 11:16:59;;;;;;;7.28;3.45;;;;;;;14.67;77.37;101374.91;5105759;28;20043;-70
2021/12/30 11:19:29;;;;;;;7.20;2.80;;;;;;;14.69;77.14;101378.34;5108496;27;20040;-66
2021/12/30 11:21:59;;;;;;;10.10;2.92;;;;;;;14.70;77.01;101375.63;5109955;27;20163;-66
2021/12/30 11:24:30;;;;;;;9.40;2.60;;;;;;;14.72;76.81;101375.56;5102861;28;20497;-66
2021/12/30 11:26:58;;;;;;;8.27;2.60;;;;;;;14.75;76.78;101378.09;5102821;28;20044;-67
2021/12/30 11:29:25;;;;;;;7.45;2.60;;;;;;;14.76;76.97;101379.84;5100579;27;20041;-67
2021/12/30 11:31:53;;;;;;;6.93;2.50;;;;;;;14.78;77.20;101377.13;5111833;28;20046;-67